To NAV CANADA Home Page Login to a new session Search on AWWS site Disclaimer Vers la page française équivalente Tips FAQ What's new on the site To the Forecasts and Observations / NOTAM section To "File a Flight Plan" website Publications and other links Update of the User's profile FIC Telephone Numbers My Weather Data Folder Route Weather Data Regional Weather Data Local Weather Data To the Forecasts and Observations / NOTAM section
Request Generated 10/19/2018 at 16:07:23 UTC . Weather information available at that time is displayed.

METAR/TAF

REGINA INTL/SK    

METAR CYQR 191600Z 31014G20KT 15SM FEW240 06/M01 A3018 RMK CI1 CI TR SLP239=
METAR CYQR 191500Z 30013KT 15SM FEW220 SCT300 03/M01 A3017 RMK CI1CI3 CI TR SLP235=
METAR CYQR 191400Z 27007KT 15SM FEW220 M01/M03 A3015 RMK CI1 CI TR SLP231=

TAF CYQR 191138Z 1912/2012 30012KT P6SM FEW220
BECMG 1916/1918 30020G30KT SCT050
FM200200 36012KT P6SM FEW050
BECMG 2006/2008 36006KT
RMK NXT FCST BY 191800Z=
Your time UTC time
Weather data provided by Environment Canada and NAV CANADA